sensor_id;sensor_type;location;lat;lon;timestamp;temperature;humidity
9125;DHT22;4597;48.730;9.114;2022-09-09T00:00:20;16.40;99.90
9125;DHT22;4597;48.730;9.114;2022-09-09T00:03:12;16.40;99.90
9125;DHT22;4597;48.730;9.114;2022-09-09T00:05:59;16.50;99.90
9125;DHT22;4597;48.730;9.114;2022-09-09T00:09:11;16.50;99.90
9125;DHT22;4597;48.730;9.114;2022-09-09T00:11:47;16.50;99.90
9125;DHT22;4597;48.730;9.114;2022-09-09T00:14:25;16.60;99.90
9125;DHT22;4597;48.730;9.114;2022-09-09T00:17:02;16.50;99.90
9125;DHT22;4597;48.730;9.114;2022-09-09T00:22:28;16.40;99.90
9125;DHT22;4597;48.730;9.114;2022-09-09T00:25:08;16.40;99.90
9125;DHT22;4597;48.730;9.114;2022-09-09T00:27:48;16.40;99.90
9125;DHT22;4597;48.730;9.114;2022-09-09T00:30:26;16.40;99.90
9125;DHT22;4597;48.730;9.114;2022-09-09T00:33:00;16.30;99.90
9125;DHT22;4597;48.730;9.114;2022-09-09T00:35:31;16.30;99.90
9125;DHT22;4597;48.730;9.114;2022-09-09T00:38:14;16.30;99.90
9125;DHT22;4597;48.730;9.114;2022-09-09T00:40:53;16.30;99.90
9125;DHT22;4597;48.730;9.114;2022-09-09T00:43:32;16.30;99.90
9125;DHT22;4597;48.730;9.114;2022-09-09T00:46:32;16.40;99.90
9125;DHT22;4597;48.730;9.114;2022-09-09T00:51:48;16.40;99.90
9125;DHT22;4597;48.730;9.114;2022-09-09T00:56:54;16.40;99.90
9125;DHT22;4597;48.730;9.114;2022-09-09T00:59:37;16.40;99.90
9125;DHT22;4597;48.730;9.114;2022-09-09T01:02:29;16.30;99.90
9125;DHT22;4597;48.730;9.114;2022-09-09T01:05:10;16.30;99.90
9125;DHT22;4597;48.730;9.114;2022-09-09T01:07:38;16.30;99.90
9125;DHT22;4597;48.730;9.114;2022-09-09T01:10:38;16.30;99.90
9125;DHT22;4597;48.730;9.114;2022-09-09T01:13:04;16.30;99.90
9125;DHT22;4597;48.730;9.114;2022-09-09T01:15:34;16.30;99.90
9125;DHT22;4597;48.730;9.114;2022-09-09T01:18:04;16.40;99.90
9125;DHT22;4597;48.730;9.114;2022-09-09T01:21:05;16.40;99.90
9125;DHT22;4597;48.730;9.114;2022-09-09T01:28:49;16.30;99.90
9125;DHT22;4597;48.730;9.114;2022-09-09T01:31:21;16.30;99.90
9125;DHT22;4597;48.730;9.114;2022-09-09T01:33:48;16.20;99.90
9125;DHT22;4597;48.730;9.114;2022-09-09T01:36:21;16.20;99.90
9125;DHT22;4597;48.730;9.114;2022-09-09T01:38:48;16.20;99.90
9125;DHT22;4597;48.730;9.114;2022-09-09T01:41:14;16.10;99.90
9125;DHT22;4597;48.730;9.114;2022-09-09T01:43:39;16.10;99.90
9125;DHT22;4597;48.730;9.114;2022-09-09T01:46:05;16.10;99.90
9125;DHT22;4597;48.730;9.114;2022-09-09T01:48:32;16.10;99.90
9125;DHT22;4597;48.730;9.114;2022-09-09T01:50:58;16.10;99.90
9125;DHT22;4597;48.730;9.114;2022-09-09T01:53:23;16.10;99.90
9125;DHT22;4597;48.730;9.114;2022-09-09T01:55:55;16.10;99.90
9125;DHT22;4597;48.730;9.114;2022-09-09T01:58:26;16.20;99.90
9125;DHT22;4597;48.730;9.114;2022-09-09T02:03:49;16.20;99.90
9125;DHT22;4597;48.730;9.114;2022-09-09T02:06:37;16.20;99.90
9125;DHT22;4597;48.730;9.114;2022-09-09T02:09:06;16.20;99.90
9125;DHT22;4597;48.730;9.114;2022-09-09T02:11:33;16.30;99.90
9125;DHT22;4597;48.730;9.114;2022-09-09T02:14:02;16.30;99.90
9125;DHT22;4597;48.730;9.114;2022-09-09T02:16:44;16.30;99.90
9125;DHT22;4597;48.730;9.114;2022-09-09T02:19:19;16.30;99.90
9125;DHT22;4597;48.730;9.114;2022-09-09T02:21:52;16.20;99.90
9125;DHT22;4597;48.730;9.114;2022-09-09T02:24:19;16.30;99.90
9125;DHT22;4597;48.730;9.114;2022-09-09T02:26:46;16.20;99.90
9125;DHT22;4597;48.730;9.114;2022-09-09T02:29:22;16.20;99.90
9125;DHT22;4597;48.730;9.114;2022-09-09T02:31:49;16.20;99.90
9125;DHT22;4597;48.730;9.114;2022-09-09T02:34:18;16.20;99.90
9125;DHT22;4597;48.730;9.114;2022-09-09T02:36:46;16.20;99.90
9125;DHT22;4597;48.730;9.114;2022-09-09T02:39:13;16.20;99.90
9125;DHT22;4597;48.730;9.114;2022-09-09T02:41:40;16.10;99.90
9125;DHT22;4597;48.730;9.114;2022-09-09T02:44:14;16.10;99.90
9125;DHT22;4597;48.730;9.114;2022-09-09T02:52:19;15.90;99.90
9125;DHT22;4597;48.730;9.114;2022-09-09T02:54:48;15.90;99.90
9125;DHT22;4597;48.730;9.114;2022-09-09T02:57:23;15.90;99.90
9125;DHT22;4597;48.730;9.114;2022-09-09T02:59:50;15.90;99.90
9125;DHT22;4597;48.730;9.114;2022-09-09T03:02:18;15.80;99.90
9125;DHT22;4597;48.730;9.114;2022-09-09T03:04:44;15.80;99.90
9125;DHT22;4597;48.730;9.114;2022-09-09T03:07:10;15.80;99.90
9125;DHT22;4597;48.730;9.114;2022-09-09T03:09:36;15.80;99.90
9125;DHT22;4597;48.730;9.114;2022-09-09T03:12:02;15.80;99.90
9125;DHT22;4597;48.730;9.114;2022-09-09T03:14:29;15.80;99.90
9125;DHT22;4597;48.730;9.114;2022-09-09T03:16:55;15.70;99.90
9125;DHT22;4597;48.730;9.114;2022-09-09T03:19:23;15.70;99.90
9125;DHT22;4597;48.730;9.114;2022-09-09T03:21:48;15.70;99.90
9125;DHT22;4597;48.730;9.114;2022-09-09T03:24:14;15.70;99.90
9125;DHT22;4597;48.730;9.114;2022-09-09T03:26:41;15.70;99.90
9125;DHT22;4597;48.730;9.114;2022-09-09T03:29:07;15.60;99.90
9125;DHT22;4597;48.730;9.114;2022-09-09T03:31:34;15.70;99.90
9125;DHT22;4597;48.730;9.114;2022-09-09T03:34:01;15.70;99.90
9125;DHT22;4597;48.730;9.114;2022-09-09T03:36:27;15.70;99.90
9125;DHT22;4597;48.730;9.114;2022-09-09T03:38:54;15.80;99.90
9125;DHT22;4597;48.730;9.114;2022-09-09T03:41:20;15.80;99.90
9125;DHT22;4597;48.730;9.114;2022-09-09T03:43:47;15.80;99.90
9125;DHT22;4597;48.730;9.114;2022-09-09T03:46:12;15.70;99.90
9125;DHT22;4597;48.730;9.114;2022-09-09T03:48:38;15.70;99.90
9125;DHT22;4597;48.730;9.114;2022-09-09T03:51:03;15.70;99.90
9125;DHT22;4597;48.730;9.114;2022-09-09T03:53:30;15.60;99.90
9125;DHT22;4597;48.730;9.114;2022-09-09T03:55:56;15.60;99.90
9125;DHT22;4597;48.730;9.114;2022-09-09T03:58:25;15.50;99.90
9125;DHT22;4597;48.730;9.114;2022-09-09T04:00:58;15.50;99.90
9125;DHT22;4597;48.730;9.114;2022-09-09T04:03:25;15.50;99.90
9125;DHT22;4597;48.730;9.114;2022-09-09T04:05:52;15.50;99.90
9125;DHT22;4597;48.730;9.114;2022-09-09T04:08:18;15.40;99.90
9125;DHT22;4597;48.730;9.114;2022-09-09T04:10:48;15.40;99.90
9125;DHT22;4597;48.730;9.114;2022-09-09T04:13:15;15.50;99.90
9125;DHT22;4597;48.730;9.114;2022-09-09T04:15:52;15.50;99.90
9125;DHT22;4597;48.730;9.114;2022-09-09T04:18:19;15.50;99.90
9125;DHT22;4597;48.730;9.114;2022-09-09T04:20:49;15.50;99.90
9125;DHT22;4597;48.730;9.114;2022-09-09T04:23:15;15.50;99.90
9125;DHT22;4597;48.730;9.114;2022-09-09T04:25:49;15.50;99.90
9125;DHT22;4597;48.730;9.114;2022-09-09T04:28:15;15.50;99.90
9125;DHT22;4597;48.730;9.114;2022-09-09T04:30:42;15.50;99.90
9125;DHT22;4597;48.730;9.114;2022-09-09T04:33:08;15.50;99.90
9125;DHT22;4597;48.730;9.114;2022-09-09T04:35:35;15.60;99.90
9125;DHT22;4597;48.730;9.114;2022-09-09T04:38:01;15.60;99.90
9125;DHT22;4597;48.730;9.114;2022-09-09T04:40:28;15.60;99.90
9125;DHT22;4597;48.730;9.114;2022-09-09T04:42:55;15.60;99.90
9125;DHT22;4597;48.730;9.114;2022-09-09T04:45:20;15.60;99.90
9125;DHT22;4597;48.730;9.114;2022-09-09T04:47:46;15.60;99.90
9125;DHT22;4597;48.730;9.114;2022-09-09T04:50:11;15.60;99.90
9125;DHT22;4597;48.730;9.114;2022-09-09T04:52:37;15.60;99.90
9125;DHT22;4597;48.730;9.114;2022-09-09T04:55:03;15.60;99.90
9125;DHT22;4597;48.730;9.114;2022-09-09T04:57:29;15.60;99.90
9125;DHT22;4597;48.730;9.114;2022-09-09T04:59:57;15.60;99.90
9125;DHT22;4597;48.730;9.114;2022-09-09T05:02:23;15.60;99.90
9125;DHT22;4597;48.730;9.114;2022-09-09T05:04:48;15.70;99.90
9125;DHT22;4597;48.730;9.114;2022-09-09T05:07:15;15.70;99.90
9125;DHT22;4597;48.730;9.114;2022-09-09T05:09:40;15.70;99.90
9125;DHT22;4597;48.730;9.114;2022-09-09T05:12:06;15.70;99.90
9125;DHT22;4597;48.730;9.114;2022-09-09T05:14:31;15.80;99.90
9125;DHT22;4597;48.730;9.114;2022-09-09T05:16:57;15.80;99.90
9125;DHT22;4597;48.730;9.114;2022-09-09T05:19:23;15.80;99.90
9125;DHT22;4597;48.730;9.114;2022-09-09T05:21:49;15.90;99.90
9125;DHT22;4597;48.730;9.114;2022-09-09T05:24:15;15.90;99.90
9125;DHT22;4597;48.730;9.114;2022-09-09T05:26:41;15.90;99.90
9125;DHT22;4597;48.730;9.114;2022-09-09T05:29:06;15.80;99.90
9125;DHT22;4597;48.730;9.114;2022-09-09T05:31:33;15.90;99.90
9125;DHT22;4597;48.730;9.114;2022-09-09T05:33:59;15.90;99.90
9125;DHT22;4597;48.730;9.114;2022-09-09T05:36:24;15.90;99.90
9125;DHT22;4597;48.730;9.114;2022-09-09T05:38:51;16.00;99.90
9125;DHT22;4597;48.730;9.114;2022-09-09T05:41:19;16.10;99.90
9125;DHT22;4597;48.730;9.114;2022-09-09T05:43:45;16.10;99.90
9125;DHT22;4597;48.730;9.114;2022-09-09T05:46:14;16.10;99.90
9125;DHT22;4597;48.730;9.114;2022-09-09T05:48:42;16.20;99.90
9125;DHT22;4597;48.730;9.114;2022-09-09T05:51:10;16.20;99.90
9125;DHT22;4597;48.730;9.114;2022-09-09T05:53:38;16.30;99.90
9125;DHT22;4597;48.730;9.114;2022-09-09T05:56:05;16.30;99.90
9125;DHT22;4597;48.730;9.114;2022-09-09T05:58:31;16.30;99.90
9125;DHT22;4597;48.730;9.114;2022-09-09T06:01:24;16.30;99.90
9125;DHT22;4597;48.730;9.114;2022-09-09T06:03:51;16.30;99.90
9125;DHT22;4597;48.730;9.114;2022-09-09T06:06:20;16.40;99.90
9125;DHT22;4597;48.730;9.114;2022-09-09T06:08:51;16.40;99.90
9125;DHT22;4597;48.730;9.114;2022-09-09T06:11:29;16.40;99.90
9125;DHT22;4597;48.730;9.114;2022-09-09T06:13:56;16.50;99.90
9125;DHT22;4597;48.730;9.114;2022-09-09T06:16:24;16.50;99.90
9125;DHT22;4597;48.730;9.114;2022-09-09T06:18:50;16.60;99.90
9125;DHT22;4597;48.730;9.114;2022-09-09T06:21:21;16.60;99.90
9125;DHT22;4597;48.730;9.114;2022-09-09T06:23:47;16.60;99.90
9125;DHT22;4597;48.730;9.114;2022-09-09T06:28:40;16.50;99.90
9125;DHT22;4597;48.730;9.114;2022-09-09T06:31:10;16.40;99.90
9125;DHT22;4597;48.730;9.114;2022-09-09T06:33:38;16.40;99.90
9125;DHT22;4597;48.730;9.114;2022-09-09T06:36:07;16.40;99.90
9125;DHT22;4597;48.730;9.114;2022-09-09T06:38:36;16.40;99.90
9125;DHT22;4597;48.730;9.114;2022-09-09T06:41:01;16.50;99.90
9125;DHT22;4597;48.730;9.114;2022-09-09T06:43:27;16.60;99.90
9125;DHT22;4597;48.730;9.114;2022-09-09T06:46:13;16.60;99.90
9125;DHT22;4597;48.730;9.114;2022-09-09T06:48:40;16.60;99.90
9125;DHT22;4597;48.730;9.114;2022-09-09T06:51:20;16.70;99.90
9125;DHT22;4597;48.730;9.114;2022-09-09T06:53:53;16.80;99.90
9125;DHT22;4597;48.730;9.114;2022-09-09T06:56:28;16.90;99.90
9125;DHT22;4597;48.730;9.114;2022-09-09T06:58:55;16.90;99.90
9125;DHT22;4597;48.730;9.114;2022-09-09T07:01:26;17.00;99.90
9125;DHT22;4597;48.730;9.114;2022-09-09T07:03:55;17.00;99.90
9125;DHT22;4597;48.730;9.114;2022-09-09T07:06:22;17.10;99.90
9125;DHT22;4597;48.730;9.114;2022-09-09T07:08:56;17.10;99.90
9125;DHT22;4597;48.730;9.114;2022-09-09T07:11:25;17.20;99.90
9125;DHT22;4597;48.730;9.114;2022-09-09T07:13:52;17.20;99.90
9125;DHT22;4597;48.730;9.114;2022-09-09T07:16:19;17.20;99.90
9125;DHT22;4597;48.730;9.114;2022-09-09T07:18:46;17.30;99.90
9125;DHT22;4597;48.730;9.114;2022-09-09T07:21:13;17.40;99.90
9125;DHT22;4597;48.730;9.114;2022-09-09T07:23:40;17.40;99.90
9125;DHT22;4597;48.730;9.114;2022-09-09T07:26:14;17.50;99.90
9125;DHT22;4597;48.730;9.114;2022-09-09T07:28:40;17.60;99.90
9125;DHT22;4597;48.730;9.114;2022-09-09T07:31:08;17.60;99.90
9125;DHT22;4597;48.730;9.114;2022-09-09T07:33:38;17.70;99.90
9125;DHT22;4597;48.730;9.114;2022-09-09T07:38:40;17.80;99.90
9125;DHT22;4597;48.730;9.114;2022-09-09T07:41:14;17.70;99.90
9125;DHT22;4597;48.730;9.114;2022-09-09T07:43:41;17.80;99.90
9125;DHT22;4597;48.730;9.114;2022-09-09T07:46:09;17.80;99.90
9125;DHT22;4597;48.730;9.114;2022-09-09T07:48:35;17.90;99.90
9125;DHT22;4597;48.730;9.114;2022-09-09T07:51:21;17.90;99.90
9125;DHT22;4597;48.730;9.114;2022-09-09T07:53:48;18.00;99.90
9125;DHT22;4597;48.730;9.114;2022-09-09T07:56:16;17.90;99.90
9125;DHT22;4597;48.730;9.114;2022-09-09T07:58:49;18.00;99.90
9125;DHT22;4597;48.730;9.114;2022-09-09T08:01:24;18.10;99.90
9125;DHT22;4597;48.730;9.114;2022-09-09T08:03:56;18.10;99.90
9125;DHT22;4597;48.730;9.114;2022-09-09T08:06:25;18.00;99.90
9125;DHT22;4597;48.730;9.114;2022-09-09T08:08:52;18.00;99.90
9125;DHT22;4597;48.730;9.114;2022-09-09T08:11:18;18.10;99.90
9125;DHT22;4597;48.730;9.114;2022-09-09T08:13:44;18.10;99.90
9125;DHT22;4597;48.730;9.114;2022-09-09T08:16:13;18.10;99.90
9125;DHT22;4597;48.730;9.114;2022-09-09T08:18:39;18.20;99.90
9125;DHT22;4597;48.730;9.114;2022-09-09T08:21:06;18.40;99.90
9125;DHT22;4597;48.730;9.114;2022-09-09T08:23:33;18.50;99.90
9125;DHT22;4597;48.730;9.114;2022-09-09T08:26:11;18.50;99.90
9125;DHT22;4597;48.730;9.114;2022-09-09T08:28:38;18.60;99.90
9125;DHT22;4597;48.730;9.114;2022-09-09T08:31:12;18.60;99.90
9125;DHT22;4597;48.730;9.114;2022-09-09T08:33:38;18.80;99.90
9125;DHT22;4597;48.730;9.114;2022-09-09T08:36:05;18.90;99.90
9125;DHT22;4597;48.730;9.114;2022-09-09T08:38:32;19.00;99.90
9125;DHT22;4597;48.730;9.114;2022-09-09T08:41:23;19.10;99.90
9125;DHT22;4597;48.730;9.114;2022-09-09T08:44:06;19.10;99.90
9125;DHT22;4597;48.730;9.114;2022-09-09T08:53:05;19.10;99.90
9125;DHT22;4597;48.730;9.114;2022-09-09T08:55:51;19.10;99.90
9125;DHT22;4597;48.730;9.114;2022-09-09T08:58:35;19.10;99.90
9125;DHT22;4597;48.730;9.114;2022-09-09T09:04:20;19.20;99.90
9125;DHT22;4597;48.730;9.114;2022-09-09T09:07:09;19.40;99.90
9125;DHT22;4597;48.730;9.114;2022-09-09T09:09:55;19.70;99.90
9125;DHT22;4597;48.730;9.114;2022-09-09T09:12:28;19.90;99.90
9125;DHT22;4597;48.730;9.114;2022-09-09T09:14:55;20.20;99.90
9125;DHT22;4597;48.730;9.114;2022-09-09T09:17:26;20.40;99.90
9125;DHT22;4597;48.730;9.114;2022-09-09T09:19:53;20.60;99.90
9125;DHT22;4597;48.730;9.114;2022-09-09T09:22:33;20.60;99.90
9125;DHT22;4597;48.730;9.114;2022-09-09T09:27:36;20.70;99.90
9125;DHT22;4597;48.730;9.114;2022-09-09T09:32:39;20.90;99.90
9125;DHT22;4597;48.730;9.114;2022-09-09T09:35:12;21.00;99.90
9125;DHT22;4597;48.730;9.114;2022-09-09T09:37:40;21.10;99.90
9125;DHT22;4597;48.730;9.114;2022-09-09T09:40:20;21.00;99.90
9125;DHT22;4597;48.730;9.114;2022-09-09T09:43:01;20.90;99.90
9125;DHT22;4597;48.730;9.114;2022-09-09T09:45:32;20.70;99.90
9125;DHT22;4597;48.730;9.114;2022-09-09T09:48:05;20.50;99.90
9125;DHT22;4597;48.730;9.114;2022-09-09T09:50:32;20.30;99.90
9125;DHT22;4597;48.730;9.114;2022-09-09T09:53:03;20.10;99.90
9125;DHT22;4597;48.730;9.114;2022-09-09T09:55:32;19.90;99.90
9125;DHT22;4597;48.730;9.114;2022-09-09T09:58:05;19.70;99.90
9125;DHT22;4597;48.730;9.114;2022-09-09T10:00:31;19.50;99.90
9125;DHT22;4597;48.730;9.114;2022-09-09T10:02:59;19.20;99.90
9125;DHT22;4597;48.730;9.114;2022-09-09T10:05:27;18.70;99.90
9125;DHT22;4597;48.730;9.114;2022-09-09T10:08:20;18.30;99.90
9125;DHT22;4597;48.730;9.114;2022-09-09T10:16:25;17.70;99.90
9125;DHT22;4597;48.730;9.114;2022-09-09T10:19:09;17.70;99.90
9125;DHT22;4597;48.730;9.114;2022-09-09T10:32:56;18.40;99.90
9125;DHT22;4597;48.730;9.114;2022-09-09T10:35:44;18.50;99.90
9125;DHT22;4597;48.730;9.114;2022-09-09T10:46:29;19.00;99.90
9125;DHT22;4597;48.730;9.114;2022-09-09T10:49:25;19.00;99.90
9125;DHT22;4597;48.730;9.114;2022-09-09T10:52:14;19.00;99.90
9125;DHT22;4597;48.730;9.114;2022-09-09T10:55:10;19.10;99.90
9125;DHT22;4597;48.730;9.114;2022-09-09T10:57:41;19.00;99.90
9125;DHT22;4597;48.730;9.114;2022-09-09T11:00:39;18.80;99.90
9125;DHT22;4597;48.730;9.114;2022-09-09T11:03:05;18.60;99.90
9125;DHT22;4597;48.730;9.114;2022-09-09T11:05:41;18.50;99.90
9125;DHT22;4597;48.730;9.114;2022-09-09T11:08:14;18.50;99.90
9125;DHT22;4597;48.730;9.114;2022-09-09T11:13:35;18.40;99.90
9125;DHT22;4597;48.730;9.114;2022-09-09T11:19:03;18.00;99.90
9125;DHT22;4597;48.730;9.114;2022-09-09T11:21:47;17.90;99.90
9125;DHT22;4597;48.730;9.114;2022-09-09T11:24:40;17.80;99.90
9125;DHT22;4597;48.730;9.114;2022-09-09T11:27:19;17.70;99.90
9125;DHT22;4597;48.730;9.114;2022-09-09T11:32:45;17.60;99.90
9125;DHT22;4597;48.730;9.114;2022-09-09T11:35:44;17.50;99.90
9125;DHT22;4597;48.730;9.114;2022-09-09T11:41:05;17.50;99.90
9125;DHT22;4597;48.730;9.114;2022-09-09T11:43:44;17.40;99.90
9125;DHT22;4597;48.730;9.114;2022-09-09T11:46:13;17.30;99.90
9125;DHT22;4597;48.730;9.114;2022-09-09T11:48:42;17.30;99.90
9125;DHT22;4597;48.730;9.114;2022-09-09T11:56:28;17.40;99.90
9125;DHT22;4597;48.730;9.114;2022-09-09T11:59:06;17.60;99.90
9125;DHT22;4597;48.730;9.114;2022-09-09T12:01:42;17.90;99.90
9125;DHT22;4597;48.730;9.114;2022-09-09T12:06:51;18.20;99.90
9125;DHT22;4597;48.730;9.114;2022-09-09T12:12:22;18.30;99.90
9125;DHT22;4597;48.730;9.114;2022-09-09T12:15:00;18.40;99.90
9125;DHT22;4597;48.730;9.114;2022-09-09T12:17:28;18.50;99.90
9125;DHT22;4597;48.730;9.114;2022-09-09T12:23:03;18.70;99.90
9125;DHT22;4597;48.730;9.114;2022-09-09T12:28:35;19.10;99.90
9125;DHT22;4597;48.730;9.114;2022-09-09T12:31:27;19.30;99.90
9125;DHT22;4597;48.730;9.114;2022-09-09T12:34:09;19.40;99.90
9125;DHT22;4597;48.730;9.114;2022-09-09T12:36:35;19.50;99.90
9125;DHT22;4597;48.730;9.114;2022-09-09T12:39:15;19.70;99.90
9125;DHT22;4597;48.730;9.114;2022-09-09T12:41:54;19.90;99.90
9125;DHT22;4597;48.730;9.114;2022-09-09T12:44:22;20.00;99.90
9125;DHT22;4597;48.730;9.114;2022-09-09T12:46:49;20.10;99.90
9125;DHT22;4597;48.730;9.114;2022-09-09T12:49:34;20.10;99.90
9125;DHT22;4597;48.730;9.114;2022-09-09T12:52:07;20.10;99.90
9125;DHT22;4597;48.730;9.114;2022-09-09T12:54:36;20.20;99.90
9125;DHT22;4597;48.730;9.114;2022-09-09T12:57:02;20.40;99.90
9125;DHT22;4597;48.730;9.114;2022-09-09T12:59:37;20.60;99.90
9125;DHT22;4597;48.730;9.114;2022-09-09T13:02:16;20.80;99.90
9125;DHT22;4597;48.730;9.114;2022-09-09T13:04:43;21.00;99.90
9125;DHT22;4597;48.730;9.114;2022-09-09T13:07:10;21.30;99.90
9125;DHT22;4597;48.730;9.114;2022-09-09T13:09:37;21.60;99.90
9125;DHT22;4597;48.730;9.114;2022-09-09T13:12:04;21.60;99.90
9125;DHT22;4597;48.730;9.114;2022-09-09T13:14:35;21.70;99.90
9125;DHT22;4597;48.730;9.114;2022-09-09T13:17:04;22.00;98.40
9125;DHT22;4597;48.730;9.114;2022-09-09T13:19:35;22.20;94.70
9125;DHT22;4597;48.730;9.114;2022-09-09T13:22:19;22.50;96.20
9125;DHT22;4597;48.730;9.114;2022-09-09T13:24:45;22.80;93.00
9125;DHT22;4597;48.730;9.114;2022-09-09T13:27:28;23.00;89.30
9125;DHT22;4597;48.730;9.114;2022-09-09T13:29:54;23.00;87.00
9125;DHT22;4597;48.730;9.114;2022-09-09T13:32:22;23.20;86.60
9125;DHT22;4597;48.730;9.114;2022-09-09T13:34:56;23.50;80.30
9125;DHT22;4597;48.730;9.114;2022-09-09T13:37:34;23.70;75.90
9125;DHT22;4597;48.730;9.114;2022-09-09T13:40:00;24.00;72.80
9125;DHT22;4597;48.730;9.114;2022-09-09T13:42:29;23.90;71.70
9125;DHT22;4597;48.730;9.114;2022-09-09T13:44:57;24.10;71.80
9125;DHT22;4597;48.730;9.114;2022-09-09T13:47:42;24.40;72.10
9125;DHT22;4597;48.730;9.114;2022-09-09T13:50:22;24.70;68.90
9125;DHT22;4597;48.730;9.114;2022-09-09T13:52:52;24.90;67.20
9125;DHT22;4597;48.730;9.114;2022-09-09T13:55:22;25.10;66.30
9125;DHT22;4597;48.730;9.114;2022-09-09T13:57:56;25.10;64.00
9125;DHT22;4597;48.730;9.114;2022-09-09T14:00:22;25.20;63.00
9125;DHT22;4597;48.730;9.114;2022-09-09T14:02:49;24.90;62.40
9125;DHT22;4597;48.730;9.114;2022-09-09T14:05:15;24.20;63.40
9125;DHT22;4597;48.730;9.114;2022-09-09T14:07:42;23.80;66.40
9125;DHT22;4597;48.730;9.114;2022-09-09T14:10:09;23.60;65.90
9125;DHT22;4597;48.730;9.114;2022-09-09T14:12:34;23.60;66.50
9125;DHT22;4597;48.730;9.114;2022-09-09T14:15:02;23.60;64.80
9125;DHT22;4597;48.730;9.114;2022-09-09T14:17:28;23.60;65.60
9125;DHT22;4597;48.730;9.114;2022-09-09T14:19:57;23.50;66.50
9125;DHT22;4597;48.730;9.114;2022-09-09T14:22:23;23.30;67.60
9125;DHT22;4597;48.730;9.114;2022-09-09T14:24:49;23.10;67.30
9125;DHT22;4597;48.730;9.114;2022-09-09T14:27:16;22.90;67.80
9125;DHT22;4597;48.730;9.114;2022-09-09T14:29:44;22.60;68.80
9125;DHT22;4597;48.730;9.114;2022-09-09T14:32:10;22.40;68.90
9125;DHT22;4597;48.730;9.114;2022-09-09T14:34:36;22.30;71.50
9125;DHT22;4597;48.730;9.114;2022-09-09T14:37:02;22.30;70.50
9125;DHT22;4597;48.730;9.114;2022-09-09T14:39:27;22.40;71.30
9125;DHT22;4597;48.730;9.114;2022-09-09T14:41:53;22.40;70.50
9125;DHT22;4597;48.730;9.114;2022-09-09T14:44:18;22.30;70.60
9125;DHT22;4597;48.730;9.114;2022-09-09T14:46:44;22.40;69.40
9125;DHT22;4597;48.730;9.114;2022-09-09T14:49:10;22.40;69.30
9125;DHT22;4597;48.730;9.114;2022-09-09T14:51:38;22.60;67.30
9125;DHT22;4597;48.730;9.114;2022-09-09T14:54:04;22.70;64.80
9125;DHT22;4597;48.730;9.114;2022-09-09T14:56:32;22.70;62.00
9125;DHT22;4597;48.730;9.114;2022-09-09T14:59:00;22.50;62.30
9125;DHT22;4597;48.730;9.114;2022-09-09T15:01:27;22.40;62.90
9125;DHT22;4597;48.730;9.114;2022-09-09T15:03:54;22.20;62.90
9125;DHT22;4597;48.730;9.114;2022-09-09T15:06:21;22.30;65.00
9125;DHT22;4597;48.730;9.114;2022-09-09T15:08:47;22.10;64.60
9125;DHT22;4597;48.730;9.114;2022-09-09T15:11:14;22.20;65.00
9125;DHT22;4597;48.730;9.114;2022-09-09T15:13:41;22.30;64.30
9125;DHT22;4597;48.730;9.114;2022-09-09T15:16:15;22.30;64.00
9125;DHT22;4597;48.730;9.114;2022-09-09T15:18:41;22.20;64.60
9125;DHT22;4597;48.730;9.114;2022-09-09T15:21:12;22.20;65.30
9125;DHT22;4597;48.730;9.114;2022-09-09T15:23:39;22.10;64.50
9125;DHT22;4597;48.730;9.114;2022-09-09T15:26:05;22.00;64.80
9125;DHT22;4597;48.730;9.114;2022-09-09T15:28:35;22.10;66.00
9125;DHT22;4597;48.730;9.114;2022-09-09T15:31:09;22.10;66.20
9125;DHT22;4597;48.730;9.114;2022-09-09T15:33:35;22.10;67.40
9125;DHT22;4597;48.730;9.114;2022-09-09T15:36:22;22.00;68.40
9125;DHT22;4597;48.730;9.114;2022-09-09T15:38:48;21.80;67.50
9125;DHT22;4597;48.730;9.114;2022-09-09T15:41:15;21.60;68.30
9125;DHT22;4597;48.730;9.114;2022-09-09T15:43:45;21.50;70.00
9125;DHT22;4597;48.730;9.114;2022-09-09T15:48:43;21.30;71.20
9125;DHT22;4597;48.730;9.114;2022-09-09T15:51:14;21.20;70.90
9125;DHT22;4597;48.730;9.114;2022-09-09T15:53:40;21.20;72.40
9125;DHT22;4597;48.730;9.114;2022-09-09T15:56:06;21.10;80.00
9125;DHT22;4597;48.730;9.114;2022-09-09T15:58:32;20.80;99.90
9125;DHT22;4597;48.730;9.114;2022-09-09T16:01:05;20.20;99.90
9125;DHT22;4597;48.730;9.114;2022-09-09T16:03:36;19.70;99.90
9125;DHT22;4597;48.730;9.114;2022-09-09T16:06:03;19.20;99.90
9125;DHT22;4597;48.730;9.114;2022-09-09T16:08:38;19.00;99.90
9125;DHT22;4597;48.730;9.114;2022-09-09T16:11:06;18.80;99.90
9125;DHT22;4597;48.730;9.114;2022-09-09T16:13:35;18.40;99.90
9125;DHT22;4597;48.730;9.114;2022-09-09T16:16:02;18.00;99.90
9125;DHT22;4597;48.730;9.114;2022-09-09T16:18:53;17.70;99.90
9125;DHT22;4597;48.730;9.114;2022-09-09T16:21:22;17.30;99.90
9125;DHT22;4597;48.730;9.114;2022-09-09T16:23:50;17.20;99.90
9125;DHT22;4597;48.730;9.114;2022-09-09T16:26:17;17.20;99.90
9125;DHT22;4597;48.730;9.114;2022-09-09T16:28:43;17.10;99.90
9125;DHT22;4597;48.730;9.114;2022-09-09T16:31:11;17.00;99.90
9125;DHT22;4597;48.730;9.114;2022-09-09T16:33:39;16.80;99.90
9125;DHT22;4597;48.730;9.114;2022-09-09T16:36:09;16.70;99.90
9125;DHT22;4597;48.730;9.114;2022-09-09T16:38:36;16.70;99.90
9125;DHT22;4597;48.730;9.114;2022-09-09T16:41:03;16.80;99.90
9125;DHT22;4597;48.730;9.114;2022-09-09T16:43:31;16.90;99.90
9125;DHT22;4597;48.730;9.114;2022-09-09T16:45:56;17.00;99.90
9125;DHT22;4597;48.730;9.114;2022-09-09T16:48:22;17.20;99.90
9125;DHT22;4597;48.730;9.114;2022-09-09T16:50:48;17.30;99.90
9125;DHT22;4597;48.730;9.114;2022-09-09T16:53:14;17.60;99.90
9125;DHT22;4597;48.730;9.114;2022-09-09T16:55:40;17.70;99.90
9125;DHT22;4597;48.730;9.114;2022-09-09T16:58:07;17.80;99.90
9125;DHT22;4597;48.730;9.114;2022-09-09T17:00:34;17.80;99.90
9125;DHT22;4597;48.730;9.114;2022-09-09T17:02:59;17.80;99.90
9125;DHT22;4597;48.730;9.114;2022-09-09T17:05:25;17.90;99.90
9125;DHT22;4597;48.730;9.114;2022-09-09T17:07:50;18.00;99.90
9125;DHT22;4597;48.730;9.114;2022-09-09T17:10:17;17.90;99.90
9125;DHT22;4597;48.730;9.114;2022-09-09T17:12:42;17.90;99.90
9125;DHT22;4597;48.730;9.114;2022-09-09T17:15:08;17.90;99.90
9125;DHT22;4597;48.730;9.114;2022-09-09T17:17:34;17.90;99.90
9125;DHT22;4597;48.730;9.114;2022-09-09T17:20:00;17.80;99.90
9125;DHT22;4597;48.730;9.114;2022-09-09T17:22:27;17.70;99.90
9125;DHT22;4597;48.730;9.114;2022-09-09T17:24:53;17.70;99.90
9125;DHT22;4597;48.730;9.114;2022-09-09T17:27:19;17.60;99.90
9125;DHT22;4597;48.730;9.114;2022-09-09T17:29:45;17.40;99.90
9125;DHT22;4597;48.730;9.114;2022-09-09T17:32:10;17.30;99.90
9125;DHT22;4597;48.730;9.114;2022-09-09T17:34:36;17.30;99.90
9125;DHT22;4597;48.730;9.114;2022-09-09T17:37:03;17.20;99.90
9125;DHT22;4597;48.730;9.114;2022-09-09T17:39:31;17.20;99.90
9125;DHT22;4597;48.730;9.114;2022-09-09T17:41:57;17.10;99.90
9125;DHT22;4597;48.730;9.114;2022-09-09T17:44:22;17.10;99.90
9125;DHT22;4597;48.730;9.114;2022-09-09T17:46:48;17.10;99.90
9125;DHT22;4597;48.730;9.114;2022-09-09T17:49:16;17.00;99.90
9125;DHT22;4597;48.730;9.114;2022-09-09T17:51:45;17.00;99.90
9125;DHT22;4597;48.730;9.114;2022-09-09T17:54:14;16.90;99.90
9125;DHT22;4597;48.730;9.114;2022-09-09T17:56:40;16.90;99.90
9125;DHT22;4597;48.730;9.114;2022-09-09T17:59:08;16.90;99.90
9125;DHT22;4597;48.730;9.114;2022-09-09T18:01:37;16.80;99.90